createdAt,value
2018-06-22T00:00:04.530Z,11.90
2018-06-22T00:01:04.500Z,11.98
2018-06-22T00:02:04.581Z,11.91
2018-06-22T00:03:04.464Z,11.95
2018-06-22T00:04:04.446Z,11.90
2018-06-22T00:05:04.429Z,11.82
2018-06-22T00:06:04.412Z,11.88
2018-06-22T00:07:04.402Z,11.91
2018-06-22T00:08:04.385Z,11.90
2018-06-22T00:09:04.361Z,11.90
2018-06-22T00:10:04.339Z,11.91
2018-06-22T00:11:04.329Z,11.96
2018-06-22T00:12:04.308Z,11.99
2018-06-22T00:13:04.289Z,11.91
2018-06-22T00:14:04.271Z,11.95
2018-06-22T00:15:04.260Z,11.86
2018-06-22T00:16:04.248Z,11.98
2018-06-22T00:17:04.223Z,11.88
2018-06-22T00:18:04.210Z,11.79
2018-06-22T00:19:04.185Z,11.80
2018-06-22T00:20:04.172Z,11.83
2018-06-22T00:21:04.151Z,11.75
2018-06-22T00:22:04.138Z,11.76
2018-06-22T00:23:04.120Z,11.62
2018-06-22T00:24:04.102Z,11.61
2018-06-22T00:25:04.081Z,11.60
2018-06-22T00:26:04.178Z,11.55
2018-06-22T00:27:04.055Z,11.54
2018-06-22T00:28:04.044Z,11.46
2018-06-22T00:29:04.114Z,11.64
2018-06-22T00:30:03.998Z,11.58
2018-06-22T00:31:03.976Z,11.64
2018-06-22T00:32:03.964Z,11.61
2018-06-22T00:33:03.943Z,11.55
2018-06-22T00:34:03.929Z,11.62
2018-06-22T00:35:03.912Z,11.62
2018-06-22T00:36:03.901Z,11.60
2018-06-22T00:37:03.883Z,11.60
2018-06-22T00:38:03.862Z,11.57
2018-06-22T00:39:03.844Z,11.57
2018-06-22T00:40:03.831Z,11.42
2018-06-22T00:41:03.808Z,11.46
2018-06-22T00:42:03.787Z,11.49
2018-06-22T00:43:03.771Z,11.49
2018-06-22T00:44:03.757Z,11.47
2018-06-22T00:45:03.740Z,11.52
2018-06-22T00:46:03.716Z,11.55
2018-06-22T00:47:03.700Z,11.61
2018-06-22T00:48:03.685Z,11.61
2018-06-22T00:49:03.670Z,11.58
2018-06-22T00:50:03.650Z,11.62
2018-06-22T00:51:03.634Z,11.57
2018-06-22T00:52:03.615Z,11.54
2018-06-22T00:53:03.599Z,11.52
2018-06-22T00:54:03.581Z,11.51
2018-06-22T00:55:03.571Z,11.44
2018-06-22T00:56:03.553Z,11.54
2018-06-22T00:57:03.528Z,11.51
2018-06-22T00:58:03.511Z,11.58
2018-06-22T00:59:03.497Z,11.57
2018-06-22T01:00:03.480Z,11.62
2018-06-22T01:01:03.461Z,11.61
2018-06-22T01:02:03.441Z,11.69
2018-06-22T01:03:03.425Z,11.73
2018-06-22T01:04:03.413Z,11.73
2018-06-22T01:05:03.391Z,11.75
2018-06-22T01:06:03.376Z,11.70
2018-06-22T01:07:03.461Z,11.60
2018-06-22T01:08:03.341Z,11.57
2018-06-22T01:09:03.321Z,11.72
2018-06-22T01:10:03.307Z,11.67
2018-06-22T01:11:03.290Z,11.76
2018-06-22T01:12:03.273Z,11.73
2018-06-22T01:13:03.250Z,11.73
2018-06-22T01:14:03.234Z,11.70
2018-06-22T01:15:03.220Z,11.65
2018-06-22T01:16:03.204Z,11.72
2018-06-22T01:17:03.179Z,11.70
2018-06-22T01:18:03.169Z,11.80
2018-06-22T01:19:03.146Z,11.76
2018-06-22T01:20:03.131Z,11.76
2018-06-22T01:21:03.116Z,11.76
2018-06-22T01:22:03.099Z,11.72
2018-06-22T01:23:03.080Z,11.54
2018-06-22T01:24:03.059Z,11.70
2018-06-22T01:25:03.052Z,11.76
2018-06-22T01:26:03.025Z,11.80
2018-06-22T01:27:03.008Z,11.58
2018-06-22T01:28:02.990Z,11.60
2018-06-22T01:29:02.977Z,11.64
2018-06-22T01:30:02.954Z,11.78
2018-06-22T01:31:02.939Z,11.75
2018-06-22T01:32:02.920Z,11.69
2018-06-22T01:33:02.903Z,11.79
2018-06-22T01:34:02.889Z,11.79
2018-06-22T01:35:02.868Z,11.82
2018-06-22T01:36:02.852Z,11.75
2018-06-22T01:37:02.936Z,11.75
2018-06-22T01:38:02.821Z,11.75
2018-06-22T01:39:02.798Z,11.78
2018-06-22T01:40:02.780Z,11.73
2018-06-22T01:41:02.764Z,11.76
2018-06-22T01:42:02.749Z,11.72
2018-06-22T01:43:02.737Z,11.75
2018-06-22T01:44:02.711Z,11.75
2018-06-22T01:45:02.697Z,11.75
2018-06-22T01:46:02.678Z,11.79
2018-06-22T01:47:02.670Z,11.80
2018-06-22T01:48:02.639Z,11.82
2018-06-22T01:49:02.622Z,11.79
2018-06-22T01:50:02.611Z,11.76
2018-06-22T01:51:02.591Z,11.78
2018-06-22T01:52:02.571Z,11.76
2018-06-22T01:53:02.554Z,11.76
2018-06-22T01:54:02.535Z,11.76
2018-06-22T01:55:02.524Z,11.78
2018-06-22T01:56:02.576Z,11.69
2018-06-22T01:57:02.481Z,11.58
2018-06-22T01:58:02.463Z,11.60
2018-06-22T01:59:02.448Z,11.54
2018-06-22T02:00:02.433Z,11.55
2018-06-22T02:01:02.512Z,11.54
2018-06-22T02:02:02.402Z,11.67
2018-06-22T02:03:02.380Z,11.72
2018-06-22T02:04:02.432Z,11.76
2018-06-22T02:05:02.346Z,11.78
2018-06-22T02:06:02.326Z,11.78
2018-06-22T02:07:02.314Z,11.78
2018-06-22T02:08:02.291Z,11.80
2018-06-22T02:09:02.272Z,11.80
2018-06-22T02:10:02.260Z,11.72
2018-06-22T02:11:02.241Z,11.75
2018-06-22T02:12:02.223Z,11.73
2018-06-22T02:13:02.201Z,11.76
2018-06-22T02:14:02.186Z,11.70
2018-06-22T02:15:02.173Z,11.83
2018-06-22T02:16:02.148Z,11.82
2018-06-22T02:17:02.131Z,11.72
2018-06-22T02:18:02.115Z,11.76
2018-06-22T02:19:02.109Z,11.72
2018-06-22T02:20:02.081Z,11.67
2018-06-22T02:21:02.060Z,11.72
2018-06-22T02:22:02.046Z,11.61
2018-06-22T02:23:02.077Z,11.61
2018-06-22T02:24:02.019Z,11.55
2018-06-22T02:25:01.990Z,11.70
2018-06-22T02:26:02.029Z,11.75
2018-06-22T02:27:01.955Z,11.70
2018-06-22T02:28:01.940Z,11.67
2018-06-22T02:29:01.917Z,11.72
2018-06-22T02:30:01.902Z,11.67
2018-06-22T02:31:01.886Z,11.67
2018-06-22T02:32:01.875Z,11.64
2018-06-22T02:33:01.850Z,11.57
2018-06-22T02:34:01.829Z,11.61
2018-06-22T02:35:01.816Z,11.60
2018-06-22T02:36:01.798Z,11.55
2018-06-22T02:37:01.783Z,11.55
2018-06-22T02:38:01.765Z,11.57
2018-06-22T02:39:01.742Z,11.52
2018-06-22T02:40:01.730Z,11.55
2018-06-22T02:41:01.720Z,11.60
2018-06-22T02:42:01.798Z,11.61
2018-06-22T02:43:01.676Z,11.61
2018-06-22T02:44:01.659Z,11.62
2018-06-22T02:45:01.638Z,11.55
2018-06-22T02:46:01.622Z,11.55
2018-06-22T02:47:01.601Z,11.60
2018-06-22T02:48:01.580Z,11.58
2018-06-22T02:49:01.568Z,11.58
2018-06-22T02:50:01.630Z,11.57
2018-06-22T02:51:01.529Z,11.60
2018-06-22T02:52:01.515Z,11.54
2018-06-22T02:53:01.541Z,11.54
2018-06-22T02:54:01.474Z,11.44
2018-06-22T02:55:01.458Z,11.39
2018-06-22T02:56:01.441Z,11.47
2018-06-22T02:57:01.419Z,11.57
2018-06-22T02:58:01.413Z,11.47
2018-06-22T02:59:01.387Z,11.57
2018-06-22T03:00:01.374Z,11.55
2018-06-22T03:01:01.352Z,11.57
2018-06-22T03:02:01.332Z,11.49
2018-06-22T03:03:01.459Z,11.43
2018-06-22T03:04:01.298Z,11.47
2018-06-22T03:05:01.280Z,11.46
2018-06-22T03:06:01.262Z,11.52
2018-06-22T03:07:01.241Z,11.54
2018-06-22T03:08:01.241Z,11.54
2018-06-22T03:09:01.210Z,11.61
2018-06-22T03:10:01.191Z,11.58
2018-06-22T03:11:01.181Z,11.58
2018-06-22T03:12:01.201Z,11.55
2018-06-22T03:13:01.139Z,11.58
2018-06-22T03:14:01.126Z,11.54
2018-06-22T03:15:01.106Z,11.75
2018-06-22T03:16:01.085Z,11.70
2018-06-22T03:17:01.065Z,11.73
2018-06-22T03:18:01.060Z,11.73
2018-06-22T03:19:01.033Z,11.61
2018-06-22T03:20:01.022Z,11.70
2018-06-22T03:21:00.998Z,11.70
2018-06-22T03:22:00.978Z,11.75
2018-06-22T03:23:00.961Z,11.79
2018-06-22T03:24:00.940Z,11.73
2018-06-22T03:25:00.924Z,11.79
2018-06-22T03:26:00.909Z,11.78
2018-06-22T03:27:00.896Z,11.79
2018-06-22T03:28:00.920Z,11.61
2018-06-22T03:29:00.852Z,11.57
2018-06-22T03:30:00.834Z,11.67
2018-06-22T03:31:00.820Z,11.67
2018-06-22T03:32:00.881Z,11.55
2018-06-22T03:33:00.783Z,11.60
2018-06-22T03:34:00.762Z,11.57
2018-06-22T03:35:00.751Z,11.47
2018-06-22T03:36:00.731Z,11.44
2018-06-22T03:37:00.710Z,11.46
2018-06-22T03:38:00.692Z,11.46
2018-06-22T03:39:00.678Z,11.39
2018-06-22T03:40:00.658Z,11.42
2018-06-22T03:41:00.639Z,11.47
2018-06-22T03:42:00.626Z,11.39
2018-06-22T03:43:00.609Z,11.37
2018-06-22T03:44:00.591Z,11.47
2018-06-22T03:45:00.567Z,11.46
2018-06-22T03:46:00.551Z,11.44
2018-06-22T03:47:00.534Z,11.42
2018-06-22T03:48:00.519Z,11.42
2018-06-22T03:49:00.495Z,11.37
2018-06-22T03:50:00.487Z,11.49
2018-06-22T03:51:00.471Z,11.51
2018-06-22T03:52:00.450Z,11.40
2018-06-22T03:53:00.429Z,11.39
2018-06-22T03:54:00.410Z,11.44
2018-06-22T03:55:00.500Z,11.40
2018-06-22T03:56:00.377Z,11.29
2018-06-22T03:57:00.353Z,11.40
2018-06-22T03:58:00.345Z,11.36
2018-06-22T03:59:00.321Z,11.35
2018-06-22T04:00:00.300Z,11.39
2018-06-22T04:01:00.282Z,11.36
2018-06-22T04:02:00.267Z,11.32
2018-06-22T04:03:00.246Z,11.39
2018-06-22T04:04:00.228Z,11.28
2018-06-22T04:05:00.219Z,11.33
2018-06-22T04:06:00.195Z,11.35
2018-06-22T04:07:00.178Z,11.36
2018-06-22T04:08:00.159Z,11.33
2018-06-22T04:09:00.165Z,11.40
2018-06-22T04:10:00.123Z,11.35
2018-06-22T04:11:00.110Z,11.35
2018-06-22T04:12:00.091Z,11.36
2018-06-22T04:13:00.073Z,11.33
2018-06-22T04:14:00.152Z,11.39
2018-06-22T04:15:00.083Z,11.33
2018-06-22T04:16:00.024Z,11.35
2018-06-22T04:16:59.998Z,11.35
2018-06-22T04:17:59.980Z,11.39
2018-06-22T04:18:59.966Z,11.37
2018-06-22T04:19:59.951Z,11.37
2018-06-22T04:20:59.928Z,11.40
2018-06-22T04:21:59.910Z,11.39
2018-06-22T04:22:59.894Z,11.33
2018-06-22T04:23:59.878Z,11.39
2018-06-22T04:24:59.856Z,11.37
2018-06-22T04:25:59.851Z,11.40
2018-06-22T04:26:59.822Z,11.40
2018-06-22T04:27:59.806Z,11.39
2018-06-22T04:28:59.784Z,11.44
2018-06-22T04:29:59.920Z,11.42
2018-06-22T04:30:59.751Z,11.40
2018-06-22T04:31:59.733Z,11.43
2018-06-22T04:32:59.719Z,11.42
2018-06-22T04:33:59.695Z,11.44
2018-06-22T04:34:59.680Z,11.42
2018-06-22T04:35:59.662Z,11.43
2018-06-22T04:36:59.641Z,11.42
2018-06-22T04:37:59.624Z,11.51
2018-06-22T04:38:59.620Z,11.47
2018-06-22T04:39:59.591Z,11.40
2018-06-22T04:40:59.652Z,11.49
2018-06-22T04:41:59.552Z,11.46
2018-06-22T04:42:59.533Z,11.40
2018-06-22T04:43:59.520Z,11.46
2018-06-22T04:44:59.500Z,11.46
2018-06-22T04:45:59.481Z,11.47
2018-06-22T04:46:59.465Z,11.43
2018-06-22T04:47:59.450Z,11.49
2018-06-22T04:48:59.424Z,11.51
2018-06-22T04:49:59.412Z,11.47
2018-06-22T04:50:59.390Z,11.42
2018-06-22T04:51:59.383Z,11.37
2018-06-22T04:52:59.362Z,11.43
2018-06-22T04:53:59.339Z,11.37
2018-06-22T04:54:59.321Z,11.42
2018-06-22T04:55:59.305Z,11.47
2018-06-22T04:56:59.286Z,11.51
2018-06-22T04:57:59.267Z,11.33
2018-06-22T04:58:59.249Z,11.40
2018-06-22T04:59:59.243Z,11.29
2018-06-22T05:00:59.220Z,11.36
2018-06-22T05:01:59.198Z,11.33
2018-06-22T05:02:59.244Z,11.27
2018-06-22T05:03:59.160Z,11.36
2018-06-22T05:04:59.141Z,11.35
2018-06-22T05:05:59.131Z,11.32
2018-06-22T05:06:59.106Z,11.28
2018-06-22T05:07:59.089Z,11.36
2018-06-22T05:08:59.071Z,11.33
2018-06-22T05:09:59.052Z,11.32
2018-06-22T05:10:59.040Z,11.33
2018-06-22T05:11:59.028Z,11.33
2018-06-22T05:12:58.998Z,11.36
2018-06-22T05:13:58.982Z,11.29
2018-06-22T05:14:58.964Z,11.25
2018-06-22T05:15:58.947Z,11.32
2018-06-22T05:16:58.932Z,11.32
2018-06-22T05:17:58.909Z,11.35
2018-06-22T05:18:58.892Z,11.17
2018-06-22T05:19:58.881Z,11.18
2018-06-22T05:20:58.855Z,11.19
2018-06-22T05:21:58.838Z,11.18
2018-06-22T05:22:58.820Z,11.22
2018-06-22T05:23:58.807Z,11.18
2018-06-22T05:24:58.791Z,11.29
2018-06-22T05:25:58.772Z,11.32
2018-06-22T05:26:58.755Z,11.24
2018-06-22T05:27:58.736Z,11.25
2018-06-22T05:28:58.712Z,11.15
2018-06-22T05:29:58.791Z,11.27
2018-06-22T05:30:58.687Z,11.25
2018-06-22T05:31:58.663Z,11.25
2018-06-22T05:32:58.640Z,11.24
2018-06-22T05:33:58.628Z,11.17
2018-06-22T05:34:58.602Z,11.15
2018-06-22T05:35:58.592Z,11.10
2018-06-22T05:36:58.570Z,11.14
2018-06-22T05:37:58.552Z,11.10
2018-06-22T05:38:58.530Z,11.11
2018-06-22T05:39:58.512Z,11.10
2018-06-22T05:40:58.495Z,11.09
2018-06-22T05:41:58.481Z,11.02
2018-06-22T05:42:58.469Z,11.04
2018-06-22T05:43:58.439Z,11.03
2018-06-22T05:44:58.424Z,11.03
2018-06-22T05:45:58.411Z,10.96
2018-06-22T05:46:58.390Z,11.03
2018-06-22T05:47:58.372Z,11.09
2018-06-22T05:48:58.401Z,11.15
2018-06-22T05:49:58.334Z,11.07
2018-06-22T05:50:58.335Z,11.11
2018-06-22T05:51:58.304Z,11.10
2018-06-22T05:52:58.281Z,11.07
2018-06-22T05:53:58.258Z,11.14
2018-06-22T05:54:58.246Z,11.21
2018-06-22T05:55:58.230Z,11.24
2018-06-22T05:56:58.206Z,11.28
2018-06-22T05:57:58.191Z,11.27
2018-06-22T05:58:58.171Z,11.33
2018-06-22T05:59:58.154Z,11.35
2018-06-22T06:00:58.137Z,11.35
2018-06-22T06:01:58.116Z,11.35
2018-06-22T06:02:58.101Z,11.33
2018-06-22T06:03:58.081Z,11.32
2018-06-22T06:04:58.066Z,11.32
2018-06-22T06:05:58.044Z,11.21
2018-06-22T06:06:58.028Z,11.36
2018-06-22T06:07:58.078Z,11.29
2018-06-22T06:08:57.992Z,11.29
2018-06-22T06:09:57.973Z,11.43
2018-06-22T06:10:58.007Z,11.46
2018-06-22T06:11:57.939Z,11.39
2018-06-22T06:12:57.921Z,11.39
2018-06-22T06:13:57.910Z,11.47
2018-06-22T06:14:57.885Z,11.44
2018-06-22T06:15:57.867Z,11.44
2018-06-22T06:16:57.853Z,11.43
2018-06-22T06:17:57.837Z,11.40
2018-06-22T06:18:57.815Z,11.39
2018-06-22T06:19:57.836Z,11.43
2018-06-22T06:20:57.779Z,11.51
2018-06-22T06:21:57.757Z,11.40
2018-06-22T06:22:57.741Z,11.55
2018-06-22T06:23:57.727Z,11.51
2018-06-22T06:24:57.703Z,11.62
2018-06-22T06:25:57.687Z,11.73
2018-06-22T06:26:57.671Z,11.70
2018-06-22T06:27:57.660Z,11.73
2018-06-22T06:28:57.631Z,11.73
2018-06-22T06:29:57.616Z,11.75
2018-06-22T06:30:57.602Z,11.60
2018-06-22T06:31:57.589Z,11.72
2018-06-22T06:32:57.562Z,11.78
2018-06-22T06:33:57.548Z,11.88
2018-06-22T06:34:57.626Z,11.91
2018-06-22T06:35:57.510Z,11.90
2018-06-22T06:36:57.490Z,12.01
2018-06-22T06:37:57.535Z,11.99
2018-06-22T06:38:57.457Z,12.14
2018-06-22T06:39:57.439Z,12.07
2018-06-22T06:40:57.426Z,12.10
2018-06-22T06:41:57.469Z,12.10
2018-06-22T06:42:57.392Z,12.24
2018-06-22T06:43:57.368Z,12.16
2018-06-22T06:44:57.359Z,12.13
2018-06-22T06:45:57.333Z,12.07
2018-06-22T06:46:57.316Z,11.99
2018-06-22T06:47:57.308Z,11.96
2018-06-22T06:48:57.276Z,11.88
2018-06-22T06:49:57.260Z,12.02
2018-06-22T06:50:57.241Z,11.99
2018-06-22T06:51:57.228Z,12.09
2018-06-22T06:52:57.212Z,12.07
2018-06-22T06:53:57.190Z,12.13
2018-06-22T06:54:57.169Z,12.07
2018-06-22T06:55:57.157Z,12.12
2018-06-22T06:56:57.132Z,12.02
2018-06-22T06:57:57.114Z,12.12
2018-06-22T06:58:57.101Z,12.10
2018-06-22T06:59:57.088Z,12.01
2018-06-22T07:00:57.069Z,12.02
2018-06-22T07:01:57.061Z,12.04
2018-06-22T07:02:57.030Z,12.09
2018-06-22T07:03:57.012Z,12.16
2018-06-22T07:04:56.997Z,12.10
2018-06-22T07:05:56.981Z,12.09
2018-06-22T07:06:56.960Z,12.14
2018-06-22T07:07:56.942Z,12.24
2018-06-22T07:08:56.921Z,12.13
2018-06-22T07:09:56.913Z,12.17
2018-06-22T07:10:56.888Z,12.14
2018-06-22T07:11:56.873Z,12.16
2018-06-22T07:12:56.851Z,12.17
2018-06-22T07:13:56.835Z,12.28
2018-06-22T07:14:56.822Z,12.49
2018-06-22T07:15:56.801Z,12.53
2018-06-22T07:16:56.781Z,12.56
2018-06-22T07:17:56.765Z,12.82
2018-06-22T07:18:56.744Z,12.86
2018-06-22T07:19:56.728Z,12.93
2018-06-22T07:20:56.812Z,12.92
2018-06-22T07:21:56.693Z,12.96
2018-06-22T07:22:56.674Z,13.03
2018-06-22T07:23:56.656Z,13.04
2018-06-22T07:24:56.646Z,12.93
2018-06-22T07:25:56.621Z,13.03
2018-06-22T07:26:56.612Z,12.93
2018-06-22T07:27:56.585Z,13.03
2018-06-22T07:28:56.569Z,13.04
2018-06-22T07:29:56.552Z,13.26
2018-06-22T07:30:56.534Z,13.25
2018-06-22T07:31:56.522Z,13.23
2018-06-22T07:32:56.497Z,13.29
2018-06-22T07:33:56.479Z,13.32
2018-06-22T07:34:56.464Z,13.19
2018-06-22T07:35:56.455Z,13.26
2018-06-22T07:36:56.429Z,13.23
2018-06-22T07:37:56.411Z,13.15
2018-06-22T07:38:56.392Z,13.23
2018-06-22T07:39:56.380Z,13.23
2018-06-22T07:40:56.362Z,13.36
2018-06-22T07:41:56.349Z,13.44
2018-06-22T07:42:56.377Z,13.39
2018-06-22T07:43:56.324Z,13.64
2018-06-22T07:44:56.290Z,13.89
2018-06-22T07:45:56.282Z,14.06
2018-06-22T07:46:56.260Z,14.06
2018-06-22T07:47:56.236Z,13.87
2018-06-22T07:48:56.222Z,13.82
2018-06-22T07:49:56.312Z,13.91
2018-06-22T07:50:56.189Z,13.82
2018-06-22T07:51:56.177Z,13.88
2018-06-22T07:52:56.159Z,13.89
2018-06-22T07:53:56.132Z,13.87
2018-06-22T07:54:56.116Z,13.88
2018-06-22T07:55:56.100Z,13.67
2018-06-22T07:56:56.085Z,13.69
2018-06-22T07:57:56.113Z,13.52
2018-06-22T07:58:56.046Z,13.57
2018-06-22T07:59:56.030Z,13.70
2018-06-22T08:00:56.015Z,13.67
2018-06-22T08:01:56.000Z,13.82
2018-06-22T08:02:56.002Z,13.99
2018-06-22T08:03:55.959Z,14.04
2018-06-22T08:04:55.948Z,14.18
2018-06-22T08:05:55.926Z,14.40
2018-06-22T08:06:55.920Z,14.51
2018-06-22T08:07:55.896Z,14.69
2018-06-22T08:08:55.878Z,14.47
2018-06-22T08:09:55.907Z,14.50
2018-06-22T08:10:55.850Z,14.61
2018-06-22T08:11:55.832Z,14.68
2018-06-22T08:12:55.808Z,14.55
2018-06-22T08:13:55.795Z,14.61
2018-06-22T08:14:55.774Z,14.39
2018-06-22T08:15:55.759Z,14.45
2018-06-22T08:16:55.851Z,14.70
2018-06-22T08:17:55.724Z,14.78
2018-06-22T08:18:55.710Z,14.88
2018-06-22T08:19:55.696Z,14.94
2018-06-22T08:20:55.673Z,15.06
2018-06-22T08:21:55.659Z,14.83
2018-06-22T08:22:55.652Z,14.92
2018-06-22T08:23:55.628Z,15.07
2018-06-22T08:24:55.607Z,14.92
2018-06-22T08:25:55.591Z,14.69
2018-06-22T08:26:55.578Z,14.68
2018-06-22T08:27:55.569Z,14.72
2018-06-22T08:28:55.589Z,14.72
2018-06-22T08:29:55.523Z,14.65
2018-06-22T08:30:55.506Z,14.55
2018-06-22T08:31:55.490Z,14.58
2018-06-22T08:32:55.479Z,14.47
2018-06-22T08:33:55.463Z,14.47
2018-06-22T08:34:55.505Z,14.47
2018-06-22T08:35:55.421Z,14.37
2018-06-22T08:36:55.409Z,14.22
2018-06-22T08:37:55.395Z,14.15
2018-06-22T08:38:55.374Z,14.06
2018-06-22T08:39:55.355Z,13.95
2018-06-22T08:40:55.355Z,13.95
2018-06-22T08:41:55.408Z,14.00
2018-06-22T08:42:55.308Z,14.07
2018-06-22T08:43:55.291Z,13.89
2018-06-22T08:44:55.336Z,13.92
2018-06-22T08:45:55.253Z,13.95
2018-06-22T08:46:55.237Z,13.92
2018-06-22T08:47:55.222Z,13.97
2018-06-22T08:48:55.252Z,13.97
2018-06-22T08:49:55.185Z,13.96
2018-06-22T08:50:55.175Z,14.10
2018-06-22T08:51:55.156Z,14.10
2018-06-22T08:52:55.257Z,14.22
2018-06-22T08:53:55.121Z,14.35
2018-06-22T08:54:55.107Z,14.57
2018-06-22T08:55:55.192Z,14.65
2018-06-22T08:56:55.077Z,14.69
2018-06-22T08:57:55.051Z,14.77
2018-06-22T08:58:55.040Z,14.91
2018-06-22T08:59:55.021Z,14.91
2018-06-22T09:00:55.000Z,15.07
2018-06-22T09:01:54.982Z,15.11
2018-06-22T09:02:54.969Z,15.11
2018-06-22T09:03:54.949Z,15.03
2018-06-22T09:04:54.934Z,14.95
2018-06-22T09:05:54.917Z,15.01
2018-06-22T09:06:54.903Z,15.06
2018-06-22T09:07:54.887Z,15.16
2018-06-22T09:08:54.866Z,15.09
2018-06-22T09:09:54.859Z,15.07
2018-06-22T09:10:54.841Z,14.92
2018-06-22T09:11:54.823Z,14.84
2018-06-22T09:12:54.802Z,14.73
2018-06-22T09:13:54.782Z,14.96
2018-06-22T09:14:54.864Z,15.07
2018-06-22T09:15:54.750Z,15.14
2018-06-22T09:16:54.730Z,15.14
2018-06-22T09:17:54.713Z,15.21
2018-06-22T09:18:54.698Z,15.32
2018-06-22T09:19:54.681Z,15.34
2018-06-22T09:20:54.666Z,15.07
2018-06-22T09:21:54.649Z,14.94
2018-06-22T09:22:54.630Z,15.03
2018-06-22T09:23:54.617Z,15.14
2018-06-22T09:24:54.599Z,15.19
2018-06-22T09:25:54.582Z,15.23
2018-06-22T09:26:54.564Z,15.14
2018-06-22T09:27:54.552Z,15.20
2018-06-22T09:28:54.542Z,15.19
2018-06-22T09:29:54.515Z,15.21
2018-06-22T09:30:54.500Z,15.14
2018-06-22T09:31:54.485Z,14.92
2018-06-22T09:32:54.466Z,14.94
2018-06-22T09:33:54.500Z,14.95
2018-06-22T09:34:54.437Z,14.88
2018-06-22T09:35:54.422Z,14.80
2018-06-22T09:36:54.547Z,14.65
2018-06-22T09:37:54.389Z,14.57
2018-06-22T09:38:54.376Z,14.52
2018-06-22T09:39:54.358Z,14.50
2018-06-22T09:40:54.343Z,14.33
2018-06-22T09:41:54.371Z,14.24
2018-06-22T09:42:54.350Z,13.96
2018-06-22T09:43:54.284Z,13.67
2018-06-22T09:44:54.277Z,13.69
2018-06-22T09:45:54.254Z,13.63
2018-06-22T09:46:54.245Z,13.63
2018-06-22T09:47:54.216Z,13.59
2018-06-22T09:48:54.201Z,13.62
2018-06-22T09:49:54.183Z,13.52
2018-06-22T09:50:54.166Z,13.62
2018-06-22T09:51:54.150Z,13.70
2018-06-22T09:52:54.136Z,13.66
2018-06-22T09:53:54.125Z,13.71
2018-06-22T09:54:54.110Z,13.85
2018-06-22T09:55:54.088Z,13.96
2018-06-22T09:56:54.069Z,14.15
2018-06-22T09:57:54.050Z,14.14
2018-06-22T09:58:54.045Z,14.28
2018-06-22T09:59:54.017Z,14.45
2018-06-22T10:00:54.049Z,14.57
2018-06-22T10:01:53.984Z,14.78
2018-06-22T10:02:53.965Z,14.84
2018-06-22T10:03:53.950Z,15.03
2018-06-22T10:04:53.934Z,15.17
2018-06-22T10:05:53.986Z,15.35
2018-06-22T10:06:53.902Z,15.51
2018-06-22T10:07:53.889Z,15.60
2018-06-22T10:08:53.865Z,15.64
2018-06-22T10:09:53.858Z,15.56
2018-06-22T10:10:53.849Z,15.64
2018-06-22T10:11:53.818Z,15.84
2018-06-22T10:12:53.801Z,15.82
2018-06-22T10:13:53.795Z,15.82
2018-06-22T10:14:53.773Z,15.93
2018-06-22T10:15:53.762Z,15.89
2018-06-22T10:16:53.757Z,15.72
2018-06-22T10:17:53.718Z,15.82
2018-06-22T10:18:53.708Z,15.86
2018-06-22T10:19:53.720Z,15.92
2018-06-22T10:20:53.675Z,15.69
2018-06-22T10:21:53.654Z,15.76
2018-06-22T10:22:53.643Z,15.67
2018-06-22T10:23:53.632Z,15.65
2018-06-22T10:24:53.609Z,15.57
2018-06-22T10:25:53.600Z,15.46
2018-06-22T10:26:53.634Z,15.53
2018-06-22T10:27:53.557Z,15.09
2018-06-22T10:28:53.548Z,14.61
2018-06-22T10:29:53.525Z,14.22
2018-06-22T10:30:53.515Z,13.89
2018-06-22T10:31:53.506Z,13.62
2018-06-22T10:32:53.477Z,13.48
2018-06-22T10:33:53.478Z,13.51
2018-06-22T10:34:53.443Z,13.60
2018-06-22T10:35:53.429Z,13.60
2018-06-22T10:36:53.413Z,13.62
2018-06-22T10:37:53.399Z,13.69
2018-06-22T10:38:53.381Z,13.67
2018-06-22T10:39:53.369Z,13.73
2018-06-22T10:40:53.349Z,13.89
2018-06-22T10:41:53.330Z,13.95
2018-06-22T10:42:53.311Z,13.97
2018-06-22T10:43:53.303Z,14.17
2018-06-22T10:44:53.277Z,14.37
2018-06-22T10:45:53.262Z,14.43
2018-06-22T10:46:53.245Z,14.37
2018-06-22T10:47:53.233Z,14.45
2018-06-22T10:48:53.216Z,14.51
2018-06-22T10:49:53.196Z,14.77
2018-06-22T10:50:53.193Z,14.88
2018-06-22T10:51:53.165Z,15.14
2018-06-22T10:52:53.152Z,15.21
2018-06-22T10:53:53.131Z,15.43
2018-06-22T10:54:53.126Z,15.54
2018-06-22T10:55:53.104Z,15.51
2018-06-22T10:56:53.077Z,15.50
2018-06-22T10:57:53.063Z,15.64
2018-06-22T10:58:53.051Z,15.68
2018-06-22T10:59:53.158Z,15.72
2018-06-22T11:00:53.015Z,15.67
2018-06-22T11:01:52.999Z,15.86
2018-06-22T11:02:53.042Z,16.05
2018-06-22T11:03:52.981Z,16.09
2018-06-22T11:04:52.950Z,16.14
2018-06-22T11:05:52.981Z,16.17
2018-06-22T11:06:52.960Z,16.33
2018-06-22T11:07:52.901Z,16.34
2018-06-22T11:08:52.889Z,16.42
2018-06-22T11:09:52.872Z,16.27
2018-06-22T11:10:52.861Z,16.21
2018-06-22T11:11:52.841Z,16.31
2018-06-22T11:12:52.821Z,16.27
2018-06-22T11:13:52.897Z,16.24
2018-06-22T11:14:52.796Z,16.28
2018-06-22T11:15:52.786Z,16.31
2018-06-22T11:16:52.799Z,16.25
2018-06-22T11:17:52.742Z,16.23
2018-06-22T11:18:52.779Z,16.23
2018-06-22T11:19:52.716Z,16.14
2018-06-22T11:20:52.701Z,16.28
2018-06-22T11:21:52.682Z,16.30
2018-06-22T11:22:52.663Z,16.57
2018-06-22T11:23:52.650Z,16.60
2018-06-22T11:24:52.758Z,16.50
2018-06-22T11:25:52.621Z,16.88
2018-06-22T11:26:52.602Z,16.91
2018-06-22T11:27:52.589Z,17.03
2018-06-22T11:28:52.586Z,17.08
2018-06-22T11:29:52.559Z,17.22
2018-06-22T11:30:52.616Z,17.01
2018-06-22T11:31:52.525Z,16.89
2018-06-22T11:32:52.512Z,16.73
2018-06-22T11:33:52.492Z,16.86
2018-06-22T11:34:52.478Z,17.21
2018-06-22T11:35:52.535Z,17.21
2018-06-22T11:36:52.446Z,17.14
2018-06-22T11:37:52.432Z,16.96
2018-06-22T11:38:52.411Z,16.91
2018-06-22T11:39:52.399Z,16.96
2018-06-22T11:40:52.390Z,16.96
2018-06-22T11:41:52.367Z,16.83
2018-06-22T11:42:52.388Z,16.88
2018-06-22T11:43:52.334Z,17.00
2018-06-22T11:44:52.317Z,16.93
2018-06-22T11:45:52.301Z,16.85
2018-06-22T11:46:52.289Z,16.58
2018-06-22T11:47:52.279Z,16.48
2018-06-22T11:48:52.250Z,16.52
2018-06-22T11:49:52.239Z,16.45
2018-06-22T11:50:52.232Z,16.46
2018-06-22T11:51:52.206Z,16.56
2018-06-22T11:52:52.192Z,16.64
2018-06-22T11:53:52.175Z,16.70
2018-06-22T11:54:52.163Z,16.88
2018-06-22T11:55:52.150Z,16.98
2018-06-22T11:56:52.131Z,16.98
2018-06-22T11:57:52.114Z,16.89
2018-06-22T11:58:52.200Z,16.94
2018-06-22T11:59:52.083Z,17.08
2018-06-22T12:00:52.063Z,17.31
2018-06-22T12:01:52.102Z,17.37
2018-06-22T12:02:52.046Z,17.44
2018-06-22T12:03:52.019Z,17.37
2018-06-22T12:04:52.017Z,17.52
2018-06-22T12:05:51.984Z,17.44
2018-06-22T12:06:51.971Z,17.54
2018-06-22T12:07:51.954Z,17.77
2018-06-22T12:08:51.941Z,17.63
2018-06-22T12:09:51.922Z,17.49
2018-06-22T12:10:51.909Z,17.34
2018-06-22T12:11:51.891Z,17.36
2018-06-22T12:12:51.875Z,17.40
2018-06-22T12:13:51.857Z,17.37
2018-06-22T12:14:51.851Z,17.44
2018-06-22T12:15:51.836Z,17.36
2018-06-22T12:16:51.821Z,17.30
2018-06-22T12:17:51.806Z,17.14
2018-06-22T12:18:51.799Z,17.07
2018-06-22T12:19:51.766Z,17.00
2018-06-22T12:20:51.749Z,17.07
2018-06-22T12:21:51.743Z,16.97
2018-06-22T12:22:51.723Z,16.82
2018-06-22T12:23:51.708Z,16.83
2018-06-22T12:24:51.690Z,16.91
2018-06-22T12:25:51.784Z,16.94
2018-06-22T12:26:51.659Z,17.07
2018-06-22T12:27:51.648Z,17.08
2018-06-22T12:28:51.681Z,17.22
2018-06-22T12:29:51.627Z,17.31
2018-06-22T12:30:51.601Z,17.36
2018-06-22T12:31:51.591Z,17.34
2018-06-22T12:32:51.561Z,17.41
2018-06-22T12:33:51.554Z,17.58
2018-06-22T12:34:51.534Z,17.52
2018-06-22T12:35:51.522Z,17.72
2018-06-22T12:36:51.503Z,17.86
2018-06-22T12:37:51.495Z,18.15
2018-06-22T12:38:51.472Z,17.96
2018-06-22T12:39:51.469Z,17.99
2018-06-22T12:40:51.438Z,18.08
2018-06-22T12:41:51.421Z,18.23
2018-06-22T12:42:51.408Z,18.33
2018-06-22T12:43:51.392Z,18.17
2018-06-22T12:44:51.436Z,18.14
2018-06-22T12:45:51.359Z,18.11
2018-06-22T12:46:51.345Z,17.90
2018-06-22T12:47:51.334Z,17.72
2018-06-22T12:48:51.363Z,17.43
2018-06-22T12:49:51.301Z,17.44
2018-06-22T12:50:51.287Z,17.22
2018-06-22T12:51:51.272Z,17.00